KRNO Airport (Reno/Tahoe Intl) Information

FAA: RNO - ICAO: KRNO

KRNO Airport Location

State Nevada
County Washoe
City Reno
KRNO Airport is 3 miles southeast of Reno, NV.
Latitude 39-29-56.8000N
Longitude 119-46-05.2000W
Elevation 4,414ft

KRNO Airport METARs

METAR KRNO 201855Z 19007KT 10SM CLR 34/M01 A3003 RMK AO2 SLP096 T03391011
Altimeter 30.03"
Temperature 33.9°C (93.0°F)
Wind 190° at 7KT
Clouds Skies are clear.
Visibility 10.0mi
Time observed: 2021-06-20T18:55:00Z

KRNO Airport Details

Status Operational
Activation November 1938
Ownership Public
Usage Public
Chart SAN FRANCISCO
ATC on-site Yes
Beacon schedule sunset-sunrise
Beacon color clear green

KRNO Airport Contacts

Owner RENO-TAHOE AIRPORT AUTHORITY
Owner address P O BOX 12490, RENO, NV 89510
Owner phone 775-328-6400
Manager CHRIS JOHNSON
Manager address 1146 AIRPORT ROAD, MINDEN, NV 89423
Manager phone 775-782-9871

KRNO Airport (Reno/Tahoe Intl) Radio Frequencies

KRNO (Airport) Radio Frequencies

UNICOM 122.95
Common traffic advisory frequency (CTAF) N/A